createdAt,value
2022-11-22T00:00:18.066Z,11.63
2022-11-22T00:03:06.669Z,7.50
2022-11-22T00:05:55.103Z,7.33
2022-11-22T00:08:43.585Z,7.30
2022-11-22T00:11:31.994Z,6.97
2022-11-22T00:14:20.406Z,7.37
2022-11-22T00:17:10.179Z,8.93
2022-11-22T00:19:58.600Z,7.63
2022-11-22T00:22:47.078Z,10.60
2022-11-22T00:25:35.546Z,10.47
2022-11-22T00:28:24.014Z,8.20
2022-11-22T00:31:12.461Z,7.10
2022-11-22T00:34:02.239Z,5.17
2022-11-22T00:36:50.675Z,4.47
2022-11-22T00:39:39.149Z,3.87
2022-11-22T00:42:27.580Z,3.13
2022-11-22T00:45:16.134Z,3.83
2022-11-22T00:48:04.918Z,3.27
2022-11-22T00:50:56.040Z,3.27
2022-11-22T00:53:44.476Z,6.23
2022-11-22T00:56:33.209Z,3.33
2022-11-22T00:59:21.689Z,3.10
2022-11-22T01:02:10.183Z,3.30
2022-11-22T01:04:58.598Z,3.00
2022-11-22T01:07:48.504Z,3.50
2022-11-22T01:10:37.577Z,3.40
2022-11-22T01:13:26.400Z,4.93
2022-11-22T01:16:15.418Z,3.33
2022-11-22T01:19:04.171Z,4.93
2022-11-22T01:21:52.749Z,2.60
2022-11-22T01:24:42.597Z,2.70
2022-11-22T01:27:31.038Z,2.80
2022-11-22T01:30:19.496Z,3.30
2022-11-22T01:33:07.942Z,3.03
2022-11-22T01:35:58.132Z,2.33
2022-11-22T01:38:46.654Z,2.30
2022-11-22T01:41:36.520Z,4.20
2022-11-22T01:44:26.926Z,3.10
2022-11-22T01:47:16.835Z,3.93
2022-11-22T01:50:07.783Z,3.10
2022-11-22T01:52:57.654Z,3.83
2022-11-22T01:55:46.655Z,3.23
2022-11-22T01:58:38.469Z,6.40
2022-11-22T02:01:27.421Z,3.07
2022-11-22T02:04:17.508Z,2.27
2022-11-22T02:07:11.433Z,3.73
2022-11-22T02:10:00.201Z,6.30
2022-11-22T02:12:50.135Z,2.50
2022-11-22T02:15:39.955Z,3.43
2022-11-22T02:18:29.308Z,6.73
2022-11-22T02:21:17.784Z,5.80
2022-11-22T02:24:09.777Z,3.40
2022-11-22T02:26:59.563Z,3.63
2022-11-22T02:29:48.037Z,10.03
2022-11-22T02:32:36.469Z,4.43
2022-11-22T02:35:26.495Z,7.23
2022-11-22T02:38:17.519Z,4.60
2022-11-22T02:41:08.298Z,2.80
2022-11-22T02:43:58.070Z,5.60
2022-11-22T02:46:48.969Z,6.50
2022-11-22T02:49:37.389Z,6.30
2022-11-22T02:52:25.836Z,6.50
2022-11-22T02:55:14.401Z,4.03
2022-11-22T02:58:03.384Z,9.50
2022-11-22T03:00:53.282Z,8.43
2022-11-22T03:03:41.786Z,5.67
2022-11-22T03:06:30.288Z,5.07
2022-11-22T03:09:18.790Z,8.60
2022-11-22T03:12:07.359Z,5.03
2022-11-22T03:14:55.763Z,6.73
2022-11-22T03:17:45.546Z,5.20
2022-11-22T03:20:34.418Z,7.63
2022-11-22T03:23:22.838Z,4.63
2022-11-22T03:26:12.548Z,5.57
2022-11-22T03:29:01.010Z,8.80
2022-11-22T03:31:49.412Z,8.43
2022-11-22T03:34:39.241Z,4.80
2022-11-22T03:37:27.700Z,3.97
2022-11-22T03:40:16.199Z,9.10
2022-11-22T03:43:04.640Z,4.60
2022-11-22T03:45:53.130Z,15.70
2022-11-22T03:48:41.569Z,9.47
2022-11-22T03:51:31.353Z,8.77
2022-11-22T03:54:19.808Z,7.63
2022-11-22T03:57:08.229Z,14.00
2022-11-22T03:59:56.690Z,6.47
2022-11-22T04:02:45.256Z,6.10
2022-11-22T04:05:33.686Z,5.00
2022-11-22T04:08:23.592Z,7.93
2022-11-22T04:11:12.155Z,3.63
2022-11-22T04:14:18.412Z,13.83
2022-11-22T04:17:06.817Z,9.70
2022-11-22T04:20:21.683Z,8.77
2022-11-22T04:23:10.691Z,14.50
2022-11-22T04:26:00.504Z,8.23
2022-11-22T04:29:08.695Z,8.43
2022-11-22T04:32:14.676Z,4.30
2022-11-22T04:35:03.167Z,8.57
2022-11-22T04:37:51.982Z,8.83
2022-11-22T04:40:40.524Z,5.00
2022-11-22T04:43:48.657Z,10.20
2022-11-22T04:46:37.107Z,7.23
2022-11-22T04:49:25.585Z,11.67
2022-11-22T04:52:31.643Z,11.53
2022-11-22T04:55:20.081Z,7.50
2022-11-22T04:58:08.855Z,8.30
2022-11-22T05:00:58.662Z,12.17
2022-11-22T05:03:47.076Z,6.90
2022-11-22T05:06:35.478Z,13.33
2022-11-22T05:09:23.955Z,10.37
2022-11-22T05:12:12.367Z,4.43
2022-11-22T05:15:00.839Z,7.63
2022-11-22T05:17:50.630Z,7.57
2022-11-22T05:20:39.046Z,4.07
2022-11-22T05:23:44.894Z,8.90
2022-11-22T05:26:34.849Z,4.33
2022-11-22T05:29:23.312Z,4.23
2022-11-22T05:32:11.736Z,8.43
2022-11-22T05:35:01.529Z,5.80
2022-11-22T05:37:49.950Z,5.20
2022-11-22T05:40:38.433Z,7.90
2022-11-22T05:43:26.899Z,5.37
2022-11-22T05:46:21.016Z,6.27
2022-11-22T05:49:12.743Z,6.23
2022-11-22T05:52:02.808Z,8.27
2022-11-22T05:54:51.247Z,6.23
2022-11-22T05:57:39.744Z,9.60
2022-11-22T06:00:28.671Z,4.73
2022-11-22T06:03:17.119Z,8.73
2022-11-22T06:06:06.145Z,7.40
2022-11-22T06:08:55.972Z,8.33
2022-11-22T06:11:44.398Z,5.20
2022-11-22T06:14:32.843Z,11.00
2022-11-22T06:17:21.286Z,5.77
2022-11-22T06:20:10.869Z,14.33
2022-11-22T06:22:59.844Z,6.47
2022-11-22T06:25:57.524Z,9.37
2022-11-22T06:28:47.106Z,15.00
2022-11-22T06:31:35.572Z,10.50
2022-11-22T06:34:24.243Z,5.53
2022-11-22T06:37:15.743Z,9.70
2022-11-22T06:40:04.527Z,4.80
2022-11-22T06:42:54.344Z,8.33
2022-11-22T06:45:42.760Z,8.63
2022-11-22T06:48:31.824Z,5.60
2022-11-22T06:51:21.634Z,6.50
2022-11-22T06:54:12.042Z,8.20
2022-11-22T06:57:00.495Z,4.77
2022-11-22T06:59:50.329Z,9.97
2022-11-22T07:02:38.770Z,9.20
2022-11-22T07:05:27.210Z,6.93
2022-11-22T07:08:15.655Z,9.37
2022-11-22T07:11:04.687Z,6.57
2022-11-22T07:13:53.781Z,11.07
2022-11-22T07:16:43.546Z,5.77
2022-11-22T07:19:33.305Z,8.10
2022-11-22T07:22:21.883Z,10.07
2022-11-22T07:25:10.849Z,7.87
2022-11-22T07:27:59.275Z,11.83
2022-11-22T07:30:47.744Z,6.50
2022-11-22T07:33:37.907Z,6.80
2022-11-22T07:36:29.267Z,11.70
2022-11-22T07:39:17.698Z,9.90
2022-11-22T07:42:06.283Z,7.87
2022-11-22T07:44:55.250Z,7.97
2022-11-22T07:47:43.705Z,7.23
2022-11-22T07:50:33.498Z,7.80
2022-11-22T07:53:21.948Z,7.20
2022-11-22T07:56:10.400Z,7.50
2022-11-22T07:58:58.939Z,8.47
2022-11-22T08:01:47.496Z,8.53
2022-11-22T08:04:36.020Z,3.90
2022-11-22T08:07:25.945Z,8.30
2022-11-22T08:10:14.579Z,8.90
2022-11-22T08:13:03.087Z,12.40
2022-11-22T08:15:54.429Z,10.00
2022-11-22T08:18:47.216Z,7.27
2022-11-22T08:21:37.426Z,6.97
2022-11-22T08:24:27.343Z,6.80
2022-11-22T08:27:15.857Z,11.80
2022-11-22T08:30:04.900Z,9.43
2022-11-22T08:32:55.384Z,8.43
2022-11-22T08:35:43.858Z,4.30
2022-11-22T08:38:32.275Z,5.30
2022-11-22T08:41:22.234Z,5.97
2022-11-22T08:44:10.705Z,7.63
2022-11-22T08:46:59.158Z,5.13
2022-11-22T08:49:47.644Z,5.97
2022-11-22T08:52:36.194Z,4.83
2022-11-22T08:55:24.643Z,7.53
2022-11-22T08:58:14.471Z,8.00
2022-11-22T09:01:05.937Z,8.87
2022-11-22T09:03:54.445Z,6.30
2022-11-22T09:09:51.789Z,8.17
2022-11-22T09:12:44.473Z,6.73
2022-11-22T09:15:50.172Z,5.03
2022-11-22T09:18:38.892Z,4.20
2022-11-22T09:21:27.351Z,3.90
2022-11-22T09:24:16.023Z,3.40
2022-11-22T09:27:04.486Z,5.40
2022-11-22T09:29:52.983Z,5.67
2022-11-22T09:32:44.291Z,10.63
2022-11-22T09:35:32.767Z,7.07
2022-11-22T09:38:21.212Z,6.47
2022-11-22T09:41:20.556Z,3.53
2022-11-22T09:44:13.406Z,6.00
2022-11-22T09:47:08.036Z,6.80
2022-11-22T09:50:04.001Z,9.13
2022-11-22T09:52:56.278Z,7.40
2022-11-22T09:55:47.486Z,17.27
2022-11-22T09:58:39.030Z,7.83
2022-11-22T10:01:28.791Z,7.73
2022-11-22T10:04:21.262Z,4.37
2022-11-22T10:07:16.116Z,6.03
2022-11-22T10:10:06.255Z,3.23
2022-11-22T10:12:59.816Z,9.57
2022-11-22T10:15:53.677Z,7.13
2022-11-22T10:18:45.268Z,5.90
2022-11-22T10:21:33.800Z,5.90
2022-11-22T10:24:24.116Z,8.13
2022-11-22T10:27:15.002Z,3.50
2022-11-22T10:30:05.473Z,7.27
2022-11-22T10:32:59.937Z,3.77
2022-11-22T10:36:03.517Z,6.10
2022-11-22T10:39:02.311Z,6.40
2022-11-22T10:42:01.957Z,4.57
2022-11-22T10:44:54.273Z,5.57
2022-11-22T10:47:50.124Z,3.70
2022-11-22T10:50:50.121Z,4.10
2022-11-22T10:53:48.058Z,3.50
2022-11-22T10:56:40.515Z,4.27
2022-11-22T10:59:42.980Z,7.20
2022-11-22T11:02:45.941Z,5.23
2022-11-22T11:05:37.433Z,4.73
2022-11-22T11:08:54.311Z,6.03
2022-11-22T11:11:41.192Z,3.33
2022-11-22T11:14:35.045Z,2.10
2022-11-22T11:17:27.492Z,3.97
2022-11-22T11:20:22.789Z,5.80
2022-11-22T11:23:15.812Z,9.77
2022-11-22T11:26:19.248Z,5.70
2022-11-22T11:29:36.029Z,3.10
2022-11-22T11:32:27.475Z,4.27
2022-11-22T11:35:16.894Z,7.33
2022-11-22T11:38:09.702Z,4.83
2022-11-22T11:40:58.177Z,3.90
2022-11-22T11:43:46.976Z,4.47
2022-11-22T11:46:46.036Z,6.83
2022-11-22T11:49:36.006Z,3.87
2022-11-22T11:52:25.741Z,4.43
2022-11-22T11:55:17.661Z,6.40
2022-11-22T11:58:17.513Z,3.07
2022-11-22T12:01:11.565Z,6.17
2022-11-22T12:04:03.461Z,3.00
2022-11-22T12:07:03.017Z,3.03
2022-11-22T12:09:53.498Z,2.87
2022-11-22T12:12:46.767Z,5.17
2022-11-22T12:15:42.361Z,3.40
2022-11-22T12:18:39.818Z,4.97
2022-11-22T12:21:34.626Z,3.73
2022-11-22T12:24:52.287Z,4.87
2022-11-22T12:27:36.866Z,4.70
2022-11-22T12:30:25.489Z,4.63
2022-11-22T12:33:20.517Z,2.20
2022-11-22T12:36:13.832Z,4.67
2022-11-22T12:39:04.982Z,4.40
2022-11-22T12:41:58.241Z,5.47
2022-11-22T12:44:50.537Z,2.70
2022-11-22T12:47:41.305Z,2.87
2022-11-22T12:50:33.920Z,7.13
2022-11-22T12:53:24.746Z,3.30
2022-11-22T12:56:22.002Z,3.60
2022-11-22T12:59:21.053Z,4.87
2022-11-22T13:02:15.480Z,4.30
2022-11-22T13:05:08.490Z,3.17
2022-11-22T13:08:01.350Z,4.40
2022-11-22T13:10:52.993Z,2.17
2022-11-22T13:13:44.977Z,2.70
2022-11-22T13:16:35.178Z,2.93
2022-11-22T13:19:25.837Z,1.70
2022-11-22T13:22:18.603Z,4.90
2022-11-22T13:25:33.942Z,3.20
2022-11-22T13:28:25.665Z,3.73
2022-11-22T13:31:18.926Z,3.80
2022-11-22T13:34:26.384Z,2.87
2022-11-22T13:37:16.960Z,2.60
2022-11-22T13:40:23.126Z,5.17
2022-11-22T13:43:48.204Z,2.87
2022-11-22T13:46:55.475Z,2.53
2022-11-22T13:49:49.169Z,1.77
2022-11-22T13:52:52.073Z,2.07
2022-11-22T13:55:42.656Z,3.20
2022-11-22T13:58:55.499Z,2.50
2022-11-22T14:01:59.839Z,4.57
2022-11-22T14:04:54.472Z,2.37
2022-11-22T14:07:43.588Z,1.50
2022-11-22T14:10:34.007Z,4.67
2022-11-22T14:13:30.693Z,2.37
2022-11-22T14:16:36.000Z,3.90
2022-11-22T14:19:33.378Z,1.60
2022-11-22T14:22:28.690Z,2.30
2022-11-22T14:25:32.444Z,4.50
2022-11-22T14:28:43.193Z,2.40
2022-11-22T14:31:33.575Z,2.80
2022-11-22T14:34:24.759Z,2.53
2022-11-22T14:37:36.729Z,1.90
2022-11-22T14:40:35.082Z,2.03
2022-11-22T14:43:28.680Z,2.10
2022-11-22T14:46:51.325Z,2.10
2022-11-22T14:49:36.141Z,2.10
2022-11-22T14:52:26.414Z,4.40
2022-11-22T14:55:18.593Z,1.80
2022-11-22T14:58:09.253Z,2.97
2022-11-22T15:01:23.599Z,2.67
2022-11-22T15:09:20.791Z,2.07
2022-11-22T15:09:21.287Z,3.40
2022-11-22T15:11:24.088Z,4.23
2022-11-22T15:14:38.424Z,2.17
2022-11-22T15:59:21.119Z,2.93
2022-11-22T16:02:14.620Z,3.37
2022-11-22T16:06:05.761Z,3.50
2022-11-22T16:08:15.144Z,2.07
2022-11-22T16:11:04.568Z,1.57
2022-11-22T16:13:53.121Z,3.77
2022-11-22T16:16:42.984Z,1.87
2022-11-22T16:19:31.956Z,2.93
2022-11-22T16:22:30.770Z,4.00
2022-11-22T16:25:22.931Z,3.13
2022-11-22T16:28:26.219Z,2.07
2022-11-22T16:31:21.012Z,1.80
2022-11-22T16:34:13.872Z,4.23
2022-11-22T16:37:02.418Z,4.20
2022-11-22T16:39:50.916Z,3.10
2022-11-22T16:42:40.591Z,9.70
2022-11-22T16:45:29.120Z,5.90
2022-11-22T16:48:34.577Z,2.47
2022-11-22T16:51:25.642Z,2.87
2022-11-22T16:54:15.516Z,2.07
2022-11-22T16:57:04.345Z,4.57
2022-11-22T16:59:54.257Z,2.80
2022-11-22T17:02:42.729Z,2.37
2022-11-22T17:05:31.265Z,4.00
2022-11-22T17:08:21.057Z,2.37
2022-11-22T17:11:10.431Z,3.30
2022-11-22T17:13:59.142Z,1.90
2022-11-22T17:16:47.802Z,5.27
2022-11-22T17:19:53.516Z,3.23
2022-11-22T17:22:43.319Z,3.50
2022-11-22T17:25:33.132Z,3.23
2022-11-22T17:28:21.593Z,3.00
2022-11-22T17:31:12.561Z,3.43
2022-11-22T17:34:01.056Z,3.17
2022-11-22T17:36:49.591Z,3.20
2022-11-22T17:39:38.044Z,3.07
2022-11-22T17:42:27.885Z,2.17
2022-11-22T17:45:16.585Z,5.43
2022-11-22T17:48:05.610Z,1.77
2022-11-22T17:50:54.274Z,3.43
2022-11-22T17:53:42.787Z,4.17
2022-11-22T17:56:33.587Z,3.17
2022-11-22T17:59:23.421Z,10.53
2022-11-22T18:02:12.887Z,4.20
2022-11-22T18:05:05.729Z,4.77
2022-11-22T18:07:54.388Z,4.07
2022-11-22T18:10:43.182Z,3.17
2022-11-22T18:13:33.433Z,5.03
2022-11-22T18:16:28.229Z,3.20
2022-11-22T18:19:17.090Z,4.07
2022-11-22T18:22:05.619Z,6.77
2022-11-22T18:24:54.269Z,4.33
2022-11-22T18:27:43.122Z,4.03
2022-11-22T18:30:33.181Z,3.63
2022-11-22T18:33:23.628Z,4.70
2022-11-22T18:36:53.439Z,8.00
2022-11-22T18:39:28.982Z,3.83
2022-11-22T18:42:18.018Z,2.70
2022-11-22T18:45:07.998Z,5.73
2022-11-22T18:47:56.697Z,5.20
2022-11-22T18:50:46.658Z,4.30
2022-11-22T18:53:35.511Z,3.30
2022-11-22T18:56:23.964Z,4.10
2022-11-22T18:59:13.443Z,7.50
2022-11-22T19:02:01.917Z,4.77
2022-11-22T19:04:51.510Z,3.93
2022-11-22T19:07:41.427Z,3.83
2022-11-22T19:10:31.261Z,5.13
2022-11-22T19:13:19.863Z,5.20
2022-11-22T19:16:11.121Z,6.20
2022-11-22T19:19:00.156Z,9.93
2022-11-22T19:21:48.700Z,10.70
2022-11-22T19:24:42.498Z,6.93
2022-11-22T19:27:33.346Z,5.83
2022-11-22T19:30:22.210Z,7.53
2022-11-22T19:33:10.702Z,7.50
2022-11-22T19:36:00.239Z,5.77
2022-11-22T19:38:49.224Z,4.00
2022-11-22T19:41:39.144Z,5.13
2022-11-22T19:44:27.623Z,4.40
2022-11-22T19:47:16.216Z,3.73
2022-11-22T19:50:05.029Z,4.23
2022-11-22T19:52:53.505Z,4.80
2022-11-22T19:55:45.404Z,4.00
2022-11-22T19:58:36.535Z,3.90
2022-11-22T20:01:26.512Z,5.67
2022-11-22T20:04:15.226Z,4.27
2022-11-22T20:07:03.848Z,4.27
2022-11-22T20:09:52.644Z,7.93
2022-11-22T20:12:41.120Z,6.27
2022-11-22T20:15:31.014Z,5.07
2022-11-22T20:18:19.536Z,5.93
2022-11-22T20:21:09.106Z,5.50
2022-11-22T20:23:57.689Z,5.20
2022-11-22T20:26:46.163Z,7.40
2022-11-22T20:29:34.682Z,11.43
2022-11-22T20:32:24.540Z,4.63
2022-11-22T20:35:13.031Z,5.27
2022-11-22T20:38:01.736Z,4.03
2022-11-22T20:40:50.266Z,8.07
2022-11-22T20:43:39.197Z,5.30
2022-11-22T20:46:28.974Z,6.87
2022-11-22T20:49:19.053Z,8.27
2022-11-22T20:52:08.875Z,4.80
2022-11-22T20:55:03.347Z,4.33
2022-11-22T20:57:53.450Z,5.23
2022-11-22T21:00:41.950Z,5.27
2022-11-22T21:03:30.478Z,7.13
2022-11-22T21:06:21.983Z,7.53
2022-11-22T21:09:11.033Z,6.80
2022-11-22T21:11:59.565Z,5.43
2022-11-22T21:14:52.504Z,8.43
2022-11-22T21:18:02.439Z,7.30
2022-11-22T21:20:50.580Z,7.53
2022-11-22T21:23:42.278Z,7.17
2022-11-22T21:26:31.561Z,6.97
2022-11-22T21:29:20.172Z,5.83
2022-11-22T21:32:08.702Z,8.33
2022-11-22T21:34:57.205Z,5.80
2022-11-22T21:37:45.783Z,5.37
2022-11-22T21:40:35.599Z,15.43
2022-11-22T21:43:24.586Z,16.40
2022-11-22T21:46:13.180Z,14.30
2022-11-22T21:49:01.790Z,19.90
2022-11-22T21:51:50.250Z,13.60
2022-11-22T21:54:40.847Z,13.00
2022-11-22T21:57:30.673Z,14.17
2022-11-22T22:00:19.348Z,11.73
2022-11-22T22:03:07.822Z,12.57
2022-11-22T22:05:56.649Z,14.67
2022-11-22T22:08:45.254Z,14.30
2022-11-22T22:11:33.743Z,12.57
2022-11-22T22:14:23.568Z,15.93
2022-11-22T22:17:11.995Z,15.47
2022-11-22T22:20:00.447Z,13.13
2022-11-22T22:22:49.669Z,12.33
2022-11-22T22:25:40.753Z,11.47
2022-11-22T22:28:30.142Z,13.73
2022-11-22T22:31:22.644Z,10.80
2022-11-22T22:34:11.472Z,15.07
2022-11-22T22:37:01.067Z,11.70
2022-11-22T22:39:51.720Z,14.20
2022-11-22T22:42:40.385Z,13.70
2022-11-22T22:45:28.854Z,11.40
2022-11-22T22:48:19.253Z,12.67
2022-11-22T22:51:09.175Z,13.20
2022-11-22T22:53:57.989Z,9.87
2022-11-22T22:56:46.405Z,10.33
2022-11-22T22:59:34.874Z,14.30
2022-11-22T23:02:23.433Z,9.53
2022-11-22T23:05:14.292Z,10.67
2022-11-22T23:08:03.572Z,12.73
2022-11-22T23:10:52.011Z,11.13
2022-11-22T23:13:42.175Z,8.20
2022-11-22T23:16:30.614Z,8.37
2022-11-22T23:19:19.150Z,12.87
2022-11-22T23:22:09.597Z,8.73
2022-11-22T23:24:58.077Z,11.17
2022-11-22T23:27:46.520Z,9.30
2022-11-22T23:30:35.116Z,10.20
2022-11-22T23:33:23.578Z,15.47
2022-11-22T23:36:14.348Z,11.63
2022-11-22T23:39:04.121Z,12.57
2022-11-22T23:41:52.604Z,11.33
2022-11-22T23:44:41.069Z,14.10
2022-11-22T23:47:29.588Z,12.70
2022-11-22T23:50:18.074Z,12.80
2022-11-22T23:53:06.647Z,11.80
2022-11-22T23:55:56.421Z,10.60
2022-11-22T23:58:45.216Z,8.97
